Time;durP1;ratioP1;P1;durP2;ratioP2;P2;SDS_P1;SDS_P2;PMS_P1;PMS_P2;Temp;Humidity;BMP_temperature;BMP_pressure;BME280_temperature;BME280_humidity;BME280_pressure;Samples;Min_cycle;Max_cycle;Signal;HPM_P1;HPM_P2
2022/07/09 00:00:54;;;;;;;5.20;3.77;;;12.70;99.90;;;;;;5030977;28;20443;-82
2022/07/09 00:03:20;;;;;;;6.47;3.78;;;12.70;99.90;;;;;;5030880;28;20429;-83
2022/07/09 00:05:45;;;;;;;6.73;3.70;;;12.60;99.90;;;;;;5031229;28;20552;-83
2022/07/09 00:08:11;;;;;;;6.73;3.70;;;12.60;99.90;;;;;;5029200;28;20400;-83
2022/07/09 00:10:36;;;;;;;5.30;3.35;;;12.50;99.90;;;;;;5030985;28;20376;-83
2022/07/09 00:13:02;;;;;;;5.50;3.67;;;12.50;99.90;;;;;;5030809;28;20967;-83
2022/07/09 00:15:28;;;;;;;7.68;3.90;;;12.50;99.90;;;;;;5029634;28;21088;-82
2022/07/09 00:17:53;;;;;;;8.57;3.93;;;12.30;99.90;;;;;;5031052;28;20694;-83
2022/07/09 00:20:19;;;;;;;6.07;3.93;;;12.30;99.90;;;;;;5029727;28;20385;-83
2022/07/09 00:22:44;;;;;;;6.70;3.85;;;12.20;99.90;;;;;;5026067;28;20451;-83
2022/07/09 00:25:12;;;;;;;5.40;3.60;;;12.20;99.90;;;;;;5020211;28;20447;-83
2022/07/09 00:27:38;;;;;;;6.03;3.78;;;12.10;99.90;;;;;;5018275;28;20383;-83
2022/07/09 00:30:04;;;;;;;5.70;4.00;;;12.10;99.90;;;;;;5019820;28;20377;-83
2022/07/09 00:32:30;;;;;;;7.45;3.92;;;12.10;99.90;;;;;;5010853;28;20415;-83
2022/07/09 00:34:55;;;;;;;9.30;4.73;;;12.00;99.90;;;;;;5009159;28;20485;-83
2022/07/09 00:37:21;;;;;;;5.73;4.30;;;11.90;99.90;;;;;;5007938;28;20452;-82
2022/07/09 00:39:46;;;;;;;5.40;4.28;;;11.90;99.90;;;;;;5007902;28;20376;-83
2022/07/09 00:42:12;;;;;;;5.30;4.13;;;11.80;99.90;;;;;;5009977;28;20857;-83
2022/07/09 00:44:38;;;;;;;5.65;4.30;;;11.80;99.90;;;;;;5009184;28;20387;-83
2022/07/09 00:47:06;;;;;;;8.45;4.32;;;11.70;99.90;;;;;;5009245;28;20386;-82
2022/07/09 00:49:35;;;;;;;6.75;4.15;;;11.70;99.90;;;;;;5008908;28;20417;-82
2022/07/09 00:52:01;;;;;;;5.22;4.03;;;11.60;99.90;;;;;;5010299;28;20403;-83
2022/07/09 00:54:27;;;;;;;8.43;4.75;;;11.50;99.90;;;;;;5010226;28;20395;-82
2022/07/09 00:56:53;;;;;;;7.93;4.67;;;11.50;99.90;;;;;;5008907;28;20426;-82
2022/07/09 00:59:20;;;;;;;8.07;5.03;;;11.40;99.90;;;;;;5010784;28;20386;-81
2022/07/09 01:01:46;;;;;;;8.15;5.13;;;11.40;99.90;;;;;;5009949;28;20382;-81
2022/07/09 01:04:12;;;;;;;7.03;5.05;;;11.30;99.90;;;;;;5009552;28;20391;-82
2022/07/09 01:06:38;;;;;;;9.77;5.80;;;11.30;99.90;;;;;;5010456;28;20427;-82
2022/07/09 01:09:04;;;;;;;10.17;6.00;;;11.30;99.90;;;;;;5009211;28;20427;-82
2022/07/09 01:11:30;;;;;;;11.20;5.95;;;11.40;99.90;;;;;;5010517;28;20367;-83
2022/07/09 01:13:56;;;;;;;11.98;6.13;;;11.50;99.90;;;;;;5009188;28;20461;-82
2022/07/09 01:16:30;;;;;;;13.48;7.30;;;11.50;99.90;;;;;;5009274;28;20381;-83
2022/07/09 01:18:55;;;;;;;12.98;7.05;;;11.60;99.90;;;;;;5010728;28;20459;-83
2022/07/09 01:21:21;;;;;;;15.37;6.93;;;11.60;99.90;;;;;;5010052;28;20458;-84
2022/07/09 01:23:47;;;;;;;11.90;6.90;;;11.60;99.90;;;;;;5009811;28;20828;-83
2022/07/09 01:26:12;;;;;;;14.45;6.82;;;11.60;99.90;;;;;;5010336;28;20380;-83
2022/07/09 01:28:38;;;;;;;12.87;6.57;;;11.60;99.90;;;;;;5009560;28;20379;-83
2022/07/09 01:31:03;;;;;;;15.18;6.55;;;11.70;99.90;;;;;;5009918;28;20887;-83
2022/07/09 01:33:30;;;;;;;11.63;6.63;;;11.80;99.90;;;;;;5009646;28;20419;-84
2022/07/09 01:35:56;;;;;;;13.20;6.70;;;11.90;99.90;;;;;;5008820;28;20473;-83
2022/07/09 01:38:21;;;;;;;12.07;6.60;;;12.00;99.90;;;;;;5008461;28;20387;-82
2022/07/09 01:40:47;;;;;;;13.03;6.73;;;12.20;99.90;;;;;;5008248;28;20490;-84
2022/07/09 01:43:13;;;;;;;10.70;6.33;;;12.30;99.90;;;;;;5008761;28;20418;-82
2022/07/09 01:45:38;;;;;;;14.27;6.40;;;12.40;99.90;;;;;;5010588;28;20954;-83
2022/07/09 01:48:04;;;;;;;11.82;6.70;;;12.60;99.90;;;;;;5010755;28;20437;-82
2022/07/09 01:50:30;;;;;;;12.00;7.00;;;12.70;99.90;;;;;;5010393;28;20395;-82
2022/07/09 01:52:55;;;;;;;12.15;6.45;;;13.00;99.90;;;;;;5010738;28;21149;-82
2022/07/09 01:55:21;;;;;;;16.90;7.90;;;13.00;99.90;;;;;;5010496;28;20403;-82
2022/07/09 01:57:47;;;;;;;14.37;7.50;;;13.10;99.90;;;;;;5010834;28;20876;-82
2022/07/09 02:00:13;;;;;;;15.50;7.15;;;13.10;99.90;;;;;;5008968;28;20945;-83
2022/07/09 02:02:38;;;;;;;12.25;6.80;;;13.20;99.90;;;;;;5009398;28;20467;-81
2022/07/09 02:05:05;;;;;;;12.50;7.25;;;13.20;99.90;;;;;;5009909;28;20477;-83
2022/07/09 02:07:30;;;;;;;9.63;6.18;;;13.30;99.90;;;;;;5010004;28;20387;-83
2022/07/09 02:09:56;;;;;;;8.47;6.07;;;13.30;99.90;;;;;;5009886;28;20758;-83
2022/07/09 02:12:21;;;;;;;9.98;5.95;;;13.30;99.90;;;;;;5008583;28;20414;-82
2022/07/09 02:14:47;;;;;;;13.23;6.13;;;13.50;99.90;;;;;;5009303;28;20383;-83
2022/07/09 02:17:13;;;;;;;8.47;5.67;;;13.50;99.90;;;;;;5010236;28;20457;-83
2022/07/09 02:19:39;;;;;;;14.05;6.32;;;13.60;99.90;;;;;;5009490;28;20429;-83
2022/07/09 02:22:05;;;;;;;10.73;6.20;;;13.60;99.90;;;;;;5008577;28;20380;-83
2022/07/09 02:24:30;;;;;;;12.55;6.55;;;13.60;99.90;;;;;;5008702;28;20391;-82
2022/07/09 02:26:56;;;;;;;13.87;6.40;;;13.60;99.90;;;;;;5010307;28;20394;-82
2022/07/09 02:29:22;;;;;;;13.65;6.45;;;13.70;99.90;;;;;;5009545;28;20364;-81
2022/07/09 02:31:47;;;;;;;12.00;6.37;;;13.80;99.90;;;;;;5010515;28;20387;-82
2022/07/09 02:34:13;;;;;;;11.03;6.27;;;13.70;99.90;;;;;;5008513;28;20376;-83
2022/07/09 02:36:40;;;;;;;12.15;6.50;;;13.60;99.90;;;;;;5010163;28;20378;-83
2022/07/09 02:39:06;;;;;;;10.75;5.90;;;13.80;99.90;;;;;;5007770;28;20380;-83
2022/07/09 02:41:31;;;;;;;10.47;6.30;;;13.80;99.90;;;;;;5013068;28;20407;-82
2022/07/09 02:43:57;;;;;;;10.20;5.72;;;13.90;99.90;;;;;;5011559;28;20472;-83
2022/07/09 02:46:24;;;;;;;11.87;6.23;;;13.90;99.90;;;;;;5013058;28;20387;-83
2022/07/09 02:48:49;;;;;;;11.48;6.10;;;13.80;99.90;;;;;;5011177;28;20383;-83
2022/07/09 02:51:15;;;;;;;14.50;6.47;;;13.80;99.90;;;;;;5011740;28;20460;-83
2022/07/09 02:53:40;;;;;;;12.60;6.20;;;13.90;99.90;;;;;;5011548;28;20920;-83
2022/07/09 02:56:06;;;;;;;12.30;6.50;;;13.90;99.90;;;;;;5012846;28;20398;-83
2022/07/09 02:58:32;;;;;;;12.68;6.40;;;13.90;99.90;;;;;;5011462;28;20383;-83
2022/07/09 03:00:58;;;;;;;11.53;5.87;;;13.90;99.90;;;;;;5012308;28;20391;-83
2022/07/09 03:03:23;;;;;;;11.15;6.32;;;14.00;99.90;;;;;;5011296;28;20395;-84
2022/07/09 03:05:49;;;;;;;9.03;5.63;;;14.00;99.90;;;;;;5011658;28;20381;-83
2022/07/09 03:08:15;;;;;;;10.48;5.55;;;14.00;99.90;;;;;;5011432;28;20394;-84
2022/07/09 03:10:40;;;;;;;8.93;5.70;;;14.00;99.90;;;;;;5012569;28;20387;-82
2022/07/09 03:13:06;;;;;;;11.93;6.67;;;14.10;99.90;;;;;;5012050;28;20410;-83
2022/07/09 03:15:31;;;;;;;10.20;6.22;;;14.10;99.90;;;;;;5012445;28;20372;-83
2022/07/09 03:17:57;;;;;;;12.50;6.10;;;14.10;99.90;;;;;;5012302;28;20869;-83
2022/07/09 03:20:23;;;;;;;9.05;6.13;;;14.10;99.90;;;;;;5012168;28;20387;-83
2022/07/09 03:22:49;;;;;;;11.57;5.70;;;14.10;99.90;;;;;;5012116;28;20371;-82
2022/07/09 03:25:14;;;;;;;9.13;5.30;;;14.10;99.90;;;;;;5012023;28;20406;-84
2022/07/09 03:27:40;;;;;;;8.15;5.63;;;14.10;99.90;;;;;;5011073;28;20869;-83
2022/07/09 03:30:06;;;;;;;9.07;5.17;;;14.10;99.90;;;;;;5012609;28;20466;-83
2022/07/09 03:32:32;;;;;;;9.43;5.50;;;14.10;99.90;;;;;;5011088;28;20980;-83
2022/07/09 03:34:57;;;;;;;15.00;5.77;;;14.20;99.90;;;;;;5010615;28;20495;-83
2022/07/09 03:37:24;;;;;;;9.40;5.60;;;14.20;99.90;;;;;;5011324;28;20391;-83
2022/07/09 03:39:49;;;;;;;9.88;5.63;;;14.20;99.90;;;;;;5011572;28;20378;-84
2022/07/09 03:42:15;;;;;;;12.00;4.95;;;14.20;99.90;;;;;;5010294;28;20391;-84
2022/07/09 03:44:41;;;;;;;11.43;5.77;;;14.10;99.90;;;;;;5011594;28;20379;-82
2022/07/09 03:47:07;;;;;;;10.03;5.00;;;14.20;99.90;;;;;;5010520;28;21110;-84
2022/07/09 03:49:34;;;;;;;9.07;5.15;;;14.20;99.90;;;;;;5010367;28;20462;-84
2022/07/09 03:52:00;;;;;;;8.20;4.90;;;14.40;99.90;;;;;;5010651;28;20380;-84
2022/07/09 03:54:26;;;;;;;7.18;4.53;;;14.40;99.90;;;;;;5010791;28;20372;-83
2022/07/09 03:56:51;;;;;;;6.45;4.55;;;14.40;99.90;;;;;;5011442;28;20497;-83
2022/07/09 03:59:17;;;;;;;8.53;5.03;;;14.40;99.90;;;;;;5010705;28;20804;-84
2022/07/09 04:01:44;;;;;;;7.38;4.15;;;14.40;99.90;;;;;;5010255;28;20387;-83
2022/07/09 04:04:09;;;;;;;8.20;4.47;;;14.40;99.90;;;;;;5011479;28;20380;-84
2022/07/09 04:06:35;;;;;;;7.30;4.40;;;14.50;99.90;;;;;;5010110;28;20432;-83
2022/07/09 04:09:04;;;;;;;8.75;4.43;;;14.50;99.90;;;;;;5009784;28;20802;-83
2022/07/09 04:11:34;;;;;;;6.28;3.80;;;14.50;99.90;;;;;;5009872;28;20399;-84
2022/07/09 04:14:00;;;;;;;6.97;4.30;;;14.60;99.90;;;;;;5009670;28;20954;-84
2022/07/09 04:16:27;;;;;;;7.70;4.75;;;14.70;99.90;;;;;;5009889;28;20387;-84
2022/07/09 04:18:52;;;;;;;6.13;3.88;;;14.70;99.90;;;;;;5011094;28;20376;-83
2022/07/09 04:21:21;;;;;;;6.75;4.10;;;14.80;99.90;;;;;;5009628;28;20421;-83
2022/07/09 04:23:47;;;;;;;8.52;4.18;;;14.80;99.90;;;;;;5009524;28;20385;-84
2022/07/09 04:26:13;;;;;;;8.73;4.70;;;14.90;99.90;;;;;;5010862;28;20401;-83
2022/07/09 04:28:38;;;;;;;10.67;4.67;;;14.90;99.90;;;;;;5009793;28;20392;-83
2022/07/09 04:31:04;;;;;;;9.48;4.45;;;14.90;99.90;;;;;;5010928;28;20382;-83
2022/07/09 04:33:30;;;;;;;8.30;4.10;;;14.90;99.90;;;;;;5009389;28;20738;-83
2022/07/09 04:35:55;;;;;;;8.50;4.68;;;15.00;99.90;;;;;;5011159;28;20892;-83
2022/07/09 04:38:21;;;;;;;8.83;4.57;;;15.00;99.90;;;;;;5010826;28;20907;-84
2022/07/09 04:40:47;;;;;;;8.80;4.82;;;15.00;99.90;;;;;;5008787;28;20375;-83
2022/07/09 04:43:12;;;;;;;8.55;4.82;;;15.00;99.90;;;;;;5010735;28;20386;-83
2022/07/09 04:45:38;;;;;;;9.43;5.07;;;15.00;99.90;;;;;;5010696;28;20437;-83
2022/07/09 04:48:04;;;;;;;9.02;5.13;;;15.00;99.90;;;;;;5010531;28;20371;-81
2022/07/09 04:50:30;;;;;;;9.95;4.78;;;15.10;99.90;;;;;;5010414;28;20378;-83
2022/07/09 04:52:55;;;;;;;7.17;4.63;;;15.10;99.90;;;;;;5010464;28;20427;-83
2022/07/09 04:55:21;;;;;;;5.93;4.40;;;15.10;99.90;;;;;;5010427;28;20411;-84
2022/07/09 04:57:47;;;;;;;7.78;4.70;;;15.10;99.90;;;;;;5009030;28;20386;-83
2022/07/09 05:00:15;;;;;;;10.05;4.90;;;15.10;99.90;;;;;;5009088;28;20384;-82
2022/07/09 05:02:41;;;;;;;7.65;4.97;;;15.10;99.90;;;;;;5008986;28;20477;-83
2022/07/09 05:05:07;;;;;;;7.13;4.75;;;15.10;99.90;;;;;;5009455;28;20397;-83
2022/07/09 05:07:33;;;;;;;11.95;5.20;;;15.20;99.90;;;;;;5010127;28;20379;-82
2022/07/09 05:10:02;;;;;;;10.00;4.97;;;15.40;99.90;;;;;;5008770;28;20379;-83
2022/07/09 05:12:29;;;;;;;9.13;4.53;;;15.40;99.90;;;;;;5008455;28;20430;-83
2022/07/09 05:14:56;;;;;;;9.75;4.45;;;15.50;99.90;;;;;;5009938;28;20379;-82
2022/07/09 05:17:25;;;;;;;7.68;4.60;;;15.70;99.90;;;;;;5010105;28;20379;-82
2022/07/09 05:19:51;;;;;;;8.43;4.13;;;15.80;99.90;;;;;;5009001;28;20367;-83
2022/07/09 05:22:16;;;;;;;7.70;4.33;;;16.00;99.90;;;;;;5010162;28;20382;-83
2022/07/09 05:24:42;;;;;;;7.90;4.45;;;16.20;99.90;;;;;;5008773;28;20422;-83
2022/07/09 05:27:11;;;;;;;6.00;4.43;;;16.30;99.90;;;;;;5009547;28;20757;-83
2022/07/09 05:29:37;;;;;;;9.05;4.75;;;16.50;99.90;;;;;;5008743;28;20390;-82
2022/07/09 05:32:03;;;;;;;7.78;4.32;;;16.60;99.90;;;;;;5009463;28;20426;-82
2022/07/09 05:34:29;;;;;;;10.55;4.50;;;16.80;99.90;;;;;;5009969;28;20371;-82
2022/07/09 05:36:55;;;;;;;8.93;4.15;;;16.80;99.90;;;;;;5009464;28;20462;-82
2022/07/09 05:39:21;;;;;;;7.57;4.25;;;17.00;99.90;;;;;;5008303;28;20398;-82
2022/07/09 05:41:48;;;;;;;6.75;4.07;;;17.10;99.90;;;;;;5009372;28;20383;-83
2022/07/09 05:44:14;;;;;;;6.65;4.03;;;17.00;99.90;;;;;;5008524;28;20433;-83
2022/07/09 05:46:40;;;;;;;8.50;3.90;;;17.10;99.90;;;;;;5009507;28;20444;-82
2022/07/09 05:49:06;;;;;;;7.50;4.17;;;17.10;99.90;;;;;;5008042;28;20379;-82
2022/07/09 05:51:32;;;;;;;6.65;4.00;;;17.00;99.90;;;;;;5009121;28;20382;-84
2022/07/09 05:53:58;;;;;;;7.00;3.78;;;17.00;99.90;;;;;;5008248;28;20407;-83
2022/07/09 05:56:23;;;;;;;8.05;3.78;;;17.10;99.90;;;;;;5007999;28;20908;-83
2022/07/09 05:58:49;;;;;;;9.53;4.20;;;17.20;99.90;;;;;;5009695;28;20407;-82
2022/07/09 06:01:15;;;;;;;5.82;3.42;;;17.20;99.90;;;;;;5009288;28;20406;-80
2022/07/09 06:03:41;;;;;;;7.73;3.70;;;17.30;99.90;;;;;;5008012;28;20410;-82
2022/07/09 06:06:06;;;;;;;11.30;4.00;;;17.50;99.90;;;;;;5009320;28;20409;-82
2022/07/09 06:08:33;;;;;;;8.63;3.60;;;17.40;99.90;;;;;;5009322;28;20474;-83
2022/07/09 06:10:59;;;;;;;6.65;3.65;;;17.50;99.90;;;;;;5009469;28;20390;-83
2022/07/09 06:13:25;;;;;;;9.13;3.97;;;17.70;99.90;;;;;;5008959;28;20974;-83
2022/07/09 06:15:52;;;;;;;8.48;3.97;;;17.80;99.90;;;;;;5011370;28;20374;-83
2022/07/09 06:18:18;;;;;;;8.50;3.30;;;18.10;99.90;;;;;;5013245;28;20403;-82
2022/07/09 06:20:44;;;;;;;7.53;3.37;;;18.30;99.90;;;;;;5013220;28;20873;-84
2022/07/09 06:23:09;;;;;;;7.90;3.47;;;18.50;99.90;;;;;;5013015;28;20382;-82
2022/07/09 06:25:36;;;;;;;5.63;2.90;;;18.50;99.90;;;;;;5013808;28;20375;-82
2022/07/09 06:28:02;;;;;;;5.50;3.10;;;18.50;99.90;;;;;;5011800;28;20456;-82
2022/07/09 06:30:27;;;;;;;7.40;3.47;;;18.70;99.90;;;;;;5013186;28;20462;-83
2022/07/09 06:32:53;;;;;;;7.93;3.40;;;18.80;99.90;;;;;;5013422;28;21085;-81
2022/07/09 06:35:19;;;;;;;6.93;3.20;;;18.90;99.90;;;;;;5012740;28;20396;-83
2022/07/09 06:37:44;;;;;;;7.03;3.20;;;18.90;99.90;;;;;;5011624;28;20473;-84
2022/07/09 06:40:10;;;;;;;7.93;3.17;;;19.10;99.90;;;;;;5012972;28;20379;-83
2022/07/09 06:42:35;;;;;;;8.70;4.05;;;19.20;99.90;;;;;;5011368;28;20398;-83
2022/07/09 06:45:01;;;;;;;5.83;3.57;;;19.20;99.90;;;;;;5012889;28;20387;-81
2022/07/09 06:47:27;;;;;;;5.80;2.97;;;19.40;99.90;;;;;;5012465;28;20399;-83
2022/07/09 06:49:52;;;;;;;10.20;3.10;;;19.40;99.90;;;;;;5011302;28;20387;-84
2022/07/09 06:52:18;;;;;;;8.95;3.60;;;19.60;99.90;;;;;;5012589;28;20403;-83
2022/07/09 06:54:43;;;;;;;9.97;3.53;;;19.60;99.90;;;;;;5011445;28;21016;-83
2022/07/09 06:57:10;;;;;;;7.47;3.45;;;19.60;99.90;;;;;;5012267;28;20469;-81
2022/07/09 06:59:36;;;;;;;7.55;3.60;;;19.40;99.90;;;;;;5012355;28;20393;-82
2022/07/09 07:02:02;;;;;;;6.50;3.60;;;19.30;99.90;;;;;;5011002;28;20818;-83
2022/07/09 07:04:27;;;;;;;9.10;3.60;;;19.10;99.90;;;;;;5012424;28;20378;-83
2022/07/09 07:06:53;;;;;;;6.65;3.22;;;18.80;99.90;;;;;;5012773;28;20375;-84
2022/07/09 07:09:21;;;;;;;8.02;3.50;;;18.70;99.90;;;;;;5012065;28;20785;-81
2022/07/09 07:11:50;;;;;;;9.37;3.80;;;18.80;99.90;;;;;;5012109;28;20383;-82
2022/07/09 07:14:17;;;;;;;11.30;4.05;;;18.90;99.90;;;;;;5013235;28;20773;-81
2022/07/09 07:16:45;;;;;;;7.67;3.40;;;18.90;99.90;;;;;;5013091;28;20371;-84
2022/07/09 07:19:11;;;;;;;6.65;3.10;;;19.00;99.90;;;;;;5014350;28;20394;-85
2022/07/09 07:21:38;;;;;;;7.93;3.50;;;19.30;99.90;;;;;;5012116;28;20380;-84
2022/07/09 07:24:04;;;;;;;6.78;3.78;;;19.50;99.90;;;;;;5012448;28;20429;-84
2022/07/09 07:26:30;;;;;;;6.93;3.50;;;19.60;99.90;;;;;;5009921;28;20391;-83
2022/07/09 07:28:56;;;;;;;6.40;3.53;;;19.50;99.90;;;;;;5011762;28;20399;-84
2022/07/09 07:31:22;;;;;;;7.47;3.63;;;19.30;99.90;;;;;;5011834;28;20474;-83
2022/07/09 07:33:49;;;;;;;5.75;3.33;;;19.20;99.90;;;;;;5010488;28;20794;-84
2022/07/09 07:36:14;;;;;;;5.10;3.05;;;19.00;99.90;;;;;;5010581;28;20467;-81
2022/07/09 07:38:40;;;;;;;7.05;3.67;;;18.90;99.90;;;;;;5010717;28;20470;-84
2022/07/09 07:41:06;;;;;;;7.07;3.67;;;18.60;99.90;;;;;;5011669;28;20384;-84
2022/07/09 07:43:31;;;;;;;7.10;3.30;;;18.50;99.90;;;;;;5011404;28;20478;-84
2022/07/09 07:45:57;;;;;;;8.20;3.67;;;18.60;99.90;;;;;;5011940;28;20448;-83
2022/07/09 07:48:22;;;;;;;7.32;3.42;;;18.80;99.90;;;;;;5012085;28;20482;-85
2022/07/09 07:50:48;;;;;;;5.40;3.20;;;18.80;99.90;;;;;;5011592;28;20427;-84
2022/07/09 07:53:14;;;;;;;5.07;3.33;;;18.90;99.90;;;;;;5011879;28;20488;-84
2022/07/09 07:55:39;;;;;;;5.87;2.90;;;18.90;99.90;;;;;;5011179;28;20490;-82
2022/07/09 07:58:05;;;;;;;5.03;3.13;;;18.90;99.90;;;;;;5014441;28;20425;-84
2022/07/09 08:00:31;;;;;;;6.07;3.00;;;19.10;99.90;;;;;;5010198;28;20488;-84
2022/07/09 08:02:57;;;;;;;6.85;3.00;;;19.50;99.90;;;;;;5010403;28;20910;-84
2022/07/09 08:05:22;;;;;;;6.53;3.00;;;19.70;99.90;;;;;;5011617;28;20735;-84
2022/07/09 08:07:48;;;;;;;5.40;2.75;;;19.90;99.90;;;;;;5010307;28;21471;-83
2022/07/09 08:10:14;;;;;;;5.70;3.10;;;20.00;99.90;;;;;;5010361;28;20466;-82
2022/07/09 08:12:39;;;;;;;7.60;3.08;;;20.00;99.90;;;;;;5010795;28;20752;-85
2022/07/09 08:15:06;;;;;;;6.32;3.15;;;19.90;99.90;;;;;;5009657;28;20470;-82
2022/07/09 08:17:31;;;;;;;6.30;2.90;;;19.80;99.90;;;;;;5013435;28;20933;-83
2022/07/09 08:19:57;;;;;;;6.13;3.00;;;19.70;99.90;;;;;;5018474;28;20391;-83
2022/07/09 08:22:23;;;;;;;6.10;3.43;;;19.60;99.90;;;;;;5021512;28;20418;-83
2022/07/09 08:24:48;;;;;;;7.75;3.50;;;19.40;99.90;;;;;;5021186;28;20798;-84
2022/07/09 08:27:14;;;;;;;5.80;3.47;;;19.40;99.90;;;;;;5015032;28;20402;-82
2022/07/09 08:29:40;;;;;;;6.43;3.47;;;19.20;99.90;;;;;;5022494;28;20757;-84
2022/07/09 08:32:06;;;;;;;6.37;3.10;;;19.00;99.90;;;;;;5020294;28;20379;-84
2022/07/09 08:34:31;;;;;;;6.78;3.40;;;19.00;99.90;;;;;;5011236;28;20387;-84
2022/07/09 08:36:57;;;;;;;5.70;3.17;;;19.00;99.90;;;;;;5020109;28;20374;-84
2022/07/09 08:39:23;;;;;;;6.68;3.10;;;18.90;99.90;;;;;;5018394;28;20385;-83
2022/07/09 08:41:50;;;;;;;6.43;3.20;;;18.80;99.90;;;;;;5028606;28;20374;-82
2022/07/09 08:44:19;;;;;;;7.75;3.25;;;18.80;99.90;;;;;;5018257;28;20529;-85
2022/07/09 08:46:46;;;;;;;8.30;3.65;;;18.70;99.90;;;;;;5012707;28;20391;-83
2022/07/09 08:49:14;;;;;;;5.80;2.90;;;18.60;99.90;;;;;;5023426;28;20383;-82
2022/07/09 08:51:42;;;;;;;6.50;3.30;;;18.60;99.90;;;;;;5003352;28;20403;-83
2022/07/09 08:54:08;;;;;;;5.97;3.70;;;18.50;99.90;;;;;;5014140;28;20522;-82
2022/07/09 08:56:35;;;;;;;7.82;3.63;;;18.40;99.90;;;;;;5020798;28;20788;-83
2022/07/09 08:59:01;;;;;;;5.25;3.05;;;18.30;99.90;;;;;;5012103;28;20414;-83
2022/07/09 09:01:27;;;;;;;7.53;3.78;;;18.40;99.90;;;;;;5021635;28;20759;-81
2022/07/09 09:03:54;;;;;;;6.40;3.28;;;18.20;99.90;;;;;;5011090;28;20391;-83
2022/07/09 09:06:22;;;;;;;7.32;4.07;;;18.00;99.90;;;;;;5022703;28;20383;-84
2022/07/09 09:08:47;;;;;;;8.43;4.03;;;18.00;99.90;;;;;;5019910;28;20423;-82
2022/07/09 09:11:20;;;;;;;8.67;3.97;;;18.00;99.90;;;;;;5021831;28;20842;-83
2022/07/09 09:13:48;;;;;;;7.13;3.75;;;17.90;99.90;;;;;;5021017;28;20417;-82
2022/07/09 09:16:16;;;;;;;7.90;3.17;;;17.90;99.90;;;;;;5022215;28;20395;-82
2022/07/09 09:18:44;;;;;;;6.00;3.45;;;17.90;99.90;;;;;;5012190;28;20393;-82
2022/07/09 09:21:13;;;;;;;5.97;3.00;;;18.20;99.90;;;;;;5019071;28;20405;-84
2022/07/09 09:23:47;;;;;;;7.55;3.38;;;18.50;99.90;;;;;;5022403;28;20894;-82
2022/07/09 09:26:23;;;;;;;5.45;3.25;;;19.00;99.90;;;;;;5010461;28;20398;-83
2022/07/09 09:28:54;;;;;;;5.93;3.15;;;19.60;99.90;;;;;;5017506;28;20430;-82
2022/07/09 09:31:23;;;;;;;6.32;2.42;;;19.70;99.90;;;;;;5009774;28;20383;-83
2022/07/09 09:33:50;;;;;;;6.53;2.90;;;19.80;99.90;;;;;;5008802;28;20419;-82
2022/07/09 09:36:38;;;;;;;5.22;2.97;;;19.80;99.90;;;;;;5008328;28;20752;-84
2022/07/09 09:39:25;;;;;;;4.67;3.20;;;19.80;99.90;;;;;;5007980;28;20398;-83
2022/07/09 09:42:02;;;;;;;5.45;3.20;;;19.70;99.90;;;;;;5009882;28;20379;-85
2022/07/09 09:44:37;;;;;;;6.88;2.80;;;19.60;99.90;;;;;;5007597;28;20931;-82
2022/07/09 09:47:04;;;;;;;6.10;3.00;;;19.90;99.90;;;;;;5010152;28;20379;-83
2022/07/09 09:49:31;;;;;;;5.25;3.00;;;20.20;99.90;;;;;;5007886;28;20387;-84
2022/07/09 09:52:04;;;;;;;5.57;3.00;;;20.70;99.90;;;;;;5008313;28;20405;-82
2022/07/09 09:54:32;;;;;;;6.07;3.10;;;21.10;99.90;;;;;;5009137;28;20387;-83
2022/07/09 09:56:59;;;;;;;6.65;2.70;;;21.30;99.90;;;;;;5008587;28;20375;-83
2022/07/09 09:59:25;;;;;;;5.28;2.90;;;21.80;99.90;;;;;;5009268;28;20403;-81
2022/07/09 10:01:51;;;;;;;6.45;3.13;;;21.60;99.90;;;;;;5009370;28;20806;-82
2022/07/09 10:04:18;;;;;;;5.72;3.08;;;22.20;99.90;;;;;;5009655;28;20383;-82
2022/07/09 10:06:44;;;;;;;5.50;2.80;;;22.10;99.90;;;;;;5009741;28;20399;-82
2022/07/09 10:09:14;;;;;;;6.03;2.70;;;21.70;99.90;;;;;;5009539;28;20441;-82
2022/07/09 10:11:45;;;;;;;5.07;2.60;;;21.50;99.90;;;;;;5014776;28;20460;-82
2022/07/09 10:14:38;;;;;;;4.88;2.42;;;21.50;99.90;;;;;;5026690;28;20879;-82
2022/07/09 10:17:11;;;;;;;4.70;2.33;;;21.80;99.90;;;;;;5025341;28;20393;-83
2022/07/09 10:19:37;;;;;;;6.10;2.80;;;21.90;99.90;;;;;;5025698;28;20408;-81
2022/07/09 10:22:04;;;;;;;7.35;2.88;;;22.10;99.90;;;;;;5026781;28;20386;-82
2022/07/09 10:24:31;;;;;;;6.60;2.65;;;21.90;99.90;;;;;;5029019;28;20451;-83
2022/07/09 10:27:06;;;;;;;6.30;2.57;;;21.90;99.90;;;;;;5027967;28;20395;-83
2022/07/09 10:29:33;;;;;;;5.88;2.75;;;22.00;99.90;;;;;;5007894;28;20406;-83
2022/07/09 10:31:59;;;;;;;5.15;2.40;;;22.00;99.90;;;;;;5010620;28;20395;-82
2022/07/09 10:34:35;;;;;;;3.47;2.40;;;22.00;99.90;;;;;;5010845;28;20451;-82
2022/07/09 10:37:03;;;;;;;4.60;2.22;;;;;;;;;;5026892;28;20400;-82
2022/07/09 10:39:30;;;;;;;5.10;2.35;;;;;;;;;;5027548;28;20392;-81
2022/07/09 10:42:03;;;;;;;5.45;2.90;;;22.70;99.90;;;;;;5027259;28;20385;-82
2022/07/09 10:44:37;;;;;;;6.53;2.88;;;;;;;;;;5027425;28;20476;-84
2022/07/09 10:47:04;;;;;;;4.70;2.30;;;;;;;;;;5028542;28;20377;-82
2022/07/09 10:49:31;;;;;;;6.32;2.50;;;;;;;;;;5028678;28;20420;-83
2022/07/09 10:51:58;;;;;;;4.85;2.20;;;;;;;;;;5027662;28;20448;-82
2022/07/09 10:54:26;;;;;;;4.35;2.25;;;;;;;;;;5028931;28;20413;-83
2022/07/09 10:56:58;;;;;;;4.65;1.90;;;;;;;;;;5027226;28;20465;-82
2022/07/09 10:59:24;;;;;;;5.53;2.33;;;23.00;99.90;;;;;;5027602;28;20827;-83
2022/07/09 11:01:51;;;;;;;4.43;2.20;;;22.90;99.90;;;;;;5028457;28;20398;-82
2022/07/09 11:04:49;;;;;;;4.20;2.03;;;22.90;99.90;;;;;;5032719;28;20375;-82
2022/07/09 11:07:22;;;;;;;4.75;2.20;;;23.00;99.90;;;;;;5030251;28;20483;-83
2022/07/09 11:09:49;;;;;;;4.32;2.30;;;23.50;99.90;;;;;;5025613;28;20393;-83
2022/07/09 11:12:16;;;;;;;4.57;2.15;;;23.50;99.90;;;;;;5031446;28;20398;-83
2022/07/09 11:14:46;;;;;;;4.53;2.00;;;23.60;99.90;;;;;;5030349;28;20393;-84
2022/07/09 11:17:17;;;;;;;4.60;2.03;;;23.80;99.90;;;;;;5030720;28;20787;-83
2022/07/09 11:19:43;;;;;;;6.20;2.17;;;23.80;99.90;;;;;;5031517;28;20474;-83
2022/07/09 11:22:09;;;;;;;4.80;1.93;;;24.00;99.90;;;;;;5028939;28;20451;-83
2022/07/09 11:24:36;;;;;;;2.20;1.67;;;23.90;99.90;;;;;;5022857;28;20786;-82
2022/07/09 11:27:10;;;;;;;4.13;1.80;;;24.70;99.90;;;;;;5027282;28;20494;-84
2022/07/09 11:29:37;;;;;;;4.20;2.00;;;24.40;99.90;;;;;;5019916;28;20507;-83
2022/07/09 11:32:04;;;;;;;2.90;1.88;;;24.20;99.90;;;;;;5023647;28;20378;-82
2022/07/09 11:34:30;;;;;;;3.65;1.98;;;24.00;99.90;;;;;;5025167;28;20398;-83
2022/07/09 11:36:58;;;;;;;3.63;1.90;;;23.90;99.90;;;;;;5022153;28;20759;-83
2022/07/09 11:39:50;;;;;;;3.27;2.00;;;23.60;99.90;;;;;;5024991;28;20395;-84
2022/07/09 11:42:17;;;;;;;3.72;2.05;;;23.30;99.90;;;;;;5031451;28;20482;-82
2022/07/09 11:44:53;;;;;;;3.40;1.77;;;23.00;99.90;;;;;;5027375;28;20397;-82
2022/07/09 11:47:22;;;;;;;2.70;1.70;;;23.20;99.90;;;;;;5027935;28;20403;-83
2022/07/09 11:49:50;;;;;;;5.00;2.20;;;23.50;99.90;;;;;;5025443;28;21005;-81
2022/07/09 11:52:20;;;;;;;2.90;1.60;;;23.70;99.90;;;;;;5025830;28;20439;-83
2022/07/09 11:54:59;;;;;;;2.58;1.58;;;23.70;99.90;;;;;;5025993;28;20397;-83
2022/07/09 11:57:26;;;;;;;3.27;1.60;;;23.50;99.90;;;;;;5023650;28;20391;-83
2022/07/09 11:59:52;;;;;;;4.40;2.00;;;23.30;99.90;;;;;;5021454;28;20383;-82
2022/07/09 12:02:30;;;;;;;3.30;1.50;;;23.10;99.90;;;;;;5025170;28;20411;-83
2022/07/09 12:05:00;;;;;;;3.13;1.80;;;22.70;99.90;;;;;;5025401;28;20429;-83
2022/07/09 12:07:26;;;;;;;2.05;1.52;;;22.30;99.90;;;;;;5028557;28;20421;-82
2022/07/09 12:09:59;;;;;;;4.38;1.63;;;22.50;99.90;;;;;;5027846;28;20402;-80
2022/07/09 12:12:25;;;;;;;2.70;1.60;;;21.80;99.90;;;;;;5024124;28;20390;-83
2022/07/09 12:14:51;;;;;;;3.30;1.90;;;21.70;99.90;;;;;;5023312;28;20383;-83
2022/07/09 12:17:30;;;;;;;4.00;1.90;;;21.10;99.90;;;;;;5027622;28;20769;-83
2022/07/09 12:19:58;;;;;;;1.90;1.60;;;21.30;99.90;;;;;;5025380;28;20393;-84
2022/07/09 12:22:25;;;;;;;2.53;1.83;;;21.40;99.90;;;;;;5036588;28;20488;-83
2022/07/09 12:24:52;;;;;;;3.80;2.00;;;21.10;99.90;;;;;;5019347;28;20418;-81
2022/07/09 12:27:19;;;;;;;2.77;1.70;;;21.10;99.90;;;;;;5030209;28;20404;-83
2022/07/09 12:29:51;;;;;;;3.88;1.85;;;21.30;99.90;;;;;;5022502;28;20417;-81
2022/07/09 12:32:17;;;;;;;2.88;2.20;;;21.50;99.90;;;;;;5023085;28;20397;-82
2022/07/09 12:34:44;;;;;;;3.65;2.00;;;21.80;99.90;;;;;;5025956;28;20423;-83
2022/07/09 12:37:10;;;;;;;4.45;2.30;;;22.30;99.90;;;;;;5023473;28;20432;-83
2022/07/09 12:39:36;;;;;;;3.58;1.90;;;22.60;99.90;;;;;;5021109;28;20396;-84
2022/07/09 12:42:02;;;;;;;6.25;2.30;;;22.60;99.90;;;;;;5028808;28;20412;-83
2022/07/09 12:44:27;;;;;;;2.08;1.02;;;22.50;99.90;;;;;;5031971;28;20403;-83
2022/07/09 12:46:54;;;;;;;1.70;1.00;;;21.60;99.90;;;;;;5030409;28;20405;-82